ADDS METAR Data INFO
IDs: Format: Raw Decoded Include TAF

Data at: 1043 UTC 24 Jun 2018

METAR for:KSNS (Salinas Muni, CA, US)
Text:KSNS 240953Z AUTO VRB03KT 8SM OVC006 14/13 A2982 RMK AO2 SLP108 T01440128
Temperature: 14.4°C ( 58°F)
Dewpoint: 12.8°C ( 55°F) [RH = 90%]
Pressure (altimeter):29.82 inches Hg (1009.9 mb) [Sea level pressure: 1010.8 mb]
Winds:variable direction winds at 3 MPH (3 knots; 1.5 m/s)
Visibility: 8 sm ( 13 km)
Ceiling:600 feet AGL
Clouds: overcast cloud deck at 600 feet AGL
QC Flag:automated observation with no human augmentation
Text:KSNS 240853Z AUTO 36005KT 8SM OVC006 14/13 A2983 RMK AO2 SLP110 T01440133 50000
Temperature: 14.4°C ( 58°F)
Dewpoint: 13.3°C ( 56°F) [RH = 93%]
Pressure (altimeter):29.83 inches Hg (1010.2 mb) [Sea level pressure: 1011.0 mb]
Winds:from the N (360 degrees) at 6 MPH (5 knots; 2.6 m/s)
Visibility: 8 sm ( 13 km)
Ceiling:600 feet AGL
Clouds: overcast cloud deck at 600 feet AGL
QC Flag:automated observation with no human augmentation
Text:KSNS 240805Z AUTO 33004KT 8SM OVC005 14/13 A2983 RMK AO2 T01440133
Temperature: 14.4°C ( 58°F)
Dewpoint: 13.3°C ( 56°F) [RH = 93%]
Pressure (altimeter):29.83 inches Hg (1010.2 mb)
Winds:from the NNW (330 degrees) at 5 MPH (4 knots; 2.1 m/s)
Visibility: 8 sm ( 13 km)
Ceiling:500 feet AGL
Clouds: overcast cloud deck at 500 feet AGL
QC Flag:automated observation with no human augmentation
Text:KSNS 240753Z AUTO 33007KT 7SM OVC004 14/13 A2983 RMK AO2 SLP110 T01440133 402670106
Temperature: 14.4°C ( 58°F)
Dewpoint: 13.3°C ( 56°F) [RH = 93%]
Pressure (altimeter):29.83 inches Hg (1010.2 mb) [Sea level pressure: 1011.0 mb]
Winds:from the NNW (330 degrees) at 8 MPH (7 knots; 3.6 m/s)
Visibility: 7 sm ( 11 km)
Ceiling:400 feet AGL
Clouds: overcast cloud deck at 400 feet AGL
QC Flag:automated observation with no human augmentation
Text:KSNS 240723Z AUTO 31007KT 5SM BR OVC004 14/13 A2983 RMK AO2 T01440133
Temperature: 14.4°C ( 58°F)
Dewpoint: 13.3°C ( 56°F) [RH = 93%]
Pressure (altimeter):29.83 inches Hg (1010.2 mb)
Winds:from the NW (310 degrees) at 8 MPH (7 knots; 3.6 m/s)
Visibility: 5 sm ( 8 km)
Ceiling:400 feet AGL
Clouds: overcast cloud deck at 400 feet AGL
Weather:BR (mist)
QC Flag:automated observation with no human augmentation
Text:KSNS 240653Z AUTO 33007KT 7SM OVC005 14/13 A2983 RMK AO2 SLP111 T01440133
Temperature: 14.4°C ( 58°F)
Dewpoint: 13.3°C ( 56°F) [RH = 93%]
Pressure (altimeter):29.83 inches Hg (1010.2 mb) [Sea level pressure: 1011.1 mb]
Winds:from the NNW (330 degrees) at 8 MPH (7 knots; 3.6 m/s)
Visibility: 7 sm ( 11 km)
Ceiling:500 feet AGL
Clouds: overcast cloud deck at 500 feet AGL
QC Flag:automated observation with no human augmentation
Text:KSNS 240553Z AUTO 34011KT 8SM OVC008 15/13 A2983 RMK AO2 SLP110 T01500128 10206 20144 53008
Temperature: 15.0°C ( 59°F)
Dewpoint: 12.8°C ( 55°F) [RH = 87%]
Pressure (altimeter):29.83 inches Hg (1010.2 mb) [Sea level pressure: 1011.0 mb]
Winds:from the NNW (340 degrees) at 13 MPH (11 knots; 5.7 m/s)
Visibility: 8 sm ( 13 km)
Ceiling:800 feet AGL
Clouds: overcast cloud deck at 800 feet AGL
QC Flag:automated observation with no human augmentation
Text:KSNS 240509Z AUTO 33012KT 9SM BKN009 OVC013 14/13 A2982 RMK AO2 CIG 007V012 T01440128
Temperature: 14.4°C ( 58°F)
Dewpoint: 12.8°C ( 55°F) [RH = 90%]
Pressure (altimeter):29.82 inches Hg (1009.9 mb)
Winds:from the NNW (330 degrees) at 14 MPH (12 knots; 6.2 m/s)
Visibility: 9 sm ( 14 km)
Ceiling:900 feet AGL
Clouds: broken clouds at 900 feet AGL, overcast cloud deck at 1300 feet AGL
QC Flag:automated observation with no human augmentation
Text:KSNS 240453Z AUTO 33010KT 8SM OVC013 15/12 A2982 RMK AO2 SLP106 T01500122
Temperature: 15.0°C ( 59°F)
Dewpoint: 12.2°C ( 54°F) [RH = 83%]
Pressure (altimeter):29.82 inches Hg (1009.9 mb) [Sea level pressure: 1010.6 mb]
Winds:from the NNW (330 degrees) at 12 MPH (10 knots; 5.1 m/s)
Visibility: 8 sm ( 13 km)
Ceiling:1300 feet AGL
Clouds: overcast cloud deck at 1300 feet AGL
QC Flag:automated observation with no human augmentation
Text:KSNS 240437Z AUTO 34011KT 7SM BKN013 15/12 A2981 RMK AO2 T01500122
Temperature: 15.0°C ( 59°F)
Dewpoint: 12.2°C ( 54°F) [RH = 83%]
Pressure (altimeter):29.81 inches Hg (1009.6 mb)
Winds:from the NNW (340 degrees) at 13 MPH (11 knots; 5.7 m/s)
Visibility: 7 sm ( 11 km)
Ceiling:1300 feet AGL
Clouds: broken clouds at 1300 feet AGL
QC Flag:automated observation with no human augmentation
Text:KSNS 240353Z AUTO 34013KT 7SM CLR 15/12 A2981 RMK AO2 SLP103 T01500122
Temperature: 15.0°C ( 59°F)
Dewpoint: 12.2°C ( 54°F) [RH = 83%]
Pressure (altimeter):29.81 inches Hg (1009.6 mb) [Sea level pressure: 1010.3 mb]
Winds:from the NNW (340 degrees) at 15 MPH (13 knots; 6.7 m/s)
Visibility: 7 sm ( 11 km)
Ceiling:at least 12,000 feet AGL
Clouds:sky clear below 12,000 feet AGL
QC Flag:automated observation with no human augmentation
Text:KSNS 240253Z AUTO 33014KT 6SM HZ CLR 16/12 A2980 RMK AO2 SLP101 T01610122 53003
Temperature: 16.1°C ( 61°F)
Dewpoint: 12.2°C ( 54°F) [RH = 78%]
Pressure (altimeter):29.80 inches Hg (1009.2 mb) [Sea level pressure: 1010.1 mb]
Winds:from the NNW (330 degrees) at 16 MPH (14 knots; 7.2 m/s)
Visibility: 6 sm ( 10 km)
Ceiling:at least 12,000 feet AGL
Clouds:sky clear below 12,000 feet AGL
Weather:HZ (haze)
QC Flag:automated observation with no human augmentation
Text:KSNS 240153Z 32015G19KT 7SM CLR 17/12 A2980 RMK AO2 SLP098 T01720117
Temperature: 17.2°C ( 63°F)
Dewpoint: 11.7°C ( 53°F) [RH = 70%]
Pressure (altimeter):29.80 inches Hg (1009.2 mb) [Sea level pressure: 1009.8 mb]
Winds:from the NW (320 degrees) at 17 MPH (15 knots; 7.7 m/s) gusting to 22 MPH (19 knots; 9.8 m/s)
Visibility: 7 sm ( 11 km)
Ceiling:at least 12,000 feet AGL
Clouds:sky clear below 12,000 feet AGL
Text:KSNS 240053Z 33015KT 7SM CLR 19/12 A2979 RMK AO2 SLP096 T01940117
Temperature: 19.4°C ( 67°F)
Dewpoint: 11.7°C ( 53°F) [RH = 61%]
Pressure (altimeter):29.79 inches Hg (1008.9 mb) [Sea level pressure: 1009.6 mb]
Winds:from the NNW (330 degrees) at 17 MPH (15 knots; 7.7 m/s)
Visibility: 7 sm ( 11 km)
Ceiling:at least 12,000 feet AGL
Clouds:sky clear below 12,000 feet AGL
Text:KSNS 232353Z 33015KT 8SM CLR 21/12 A2979 RMK AO2 SLP098 60000 T02060117 10267 20206 51002
Temperature: 20.6°C ( 69°F)
Dewpoint: 11.7°C ( 53°F) [RH = 57%]
Pressure (altimeter):29.79 inches Hg (1008.9 mb) [Sea level pressure: 1009.8 mb]
Winds:from the NNW (330 degrees) at 17 MPH (15 knots; 7.7 m/s)
Visibility: 8 sm ( 13 km)
Ceiling:at least 12,000 feet AGL
Clouds:sky clear below 12,000 feet AGL
Text:KSNS 232253Z 34014KT 8SM CLR 21/12 A2979 RMK AO2 SLP097 T02110117
Temperature: 21.1°C ( 70°F)
Dewpoint: 11.7°C ( 53°F) [RH = 55%]
Pressure (altimeter):29.79 inches Hg (1008.9 mb) [Sea level pressure: 1009.7 mb]
Winds:from the NNW (340 degrees) at 16 MPH (14 knots; 7.2 m/s)
Visibility: 8 sm ( 13 km)
Ceiling:at least 12,000 feet AGL
Clouds:sky clear below 12,000 feet AGL